BCN weather

Barcelona International Airport
Barcelona, Catalonia, Spain

Public forecast

Using degrees Celsius for public forecast. Weather courtesy of forecast.io.

METAR (pilot weather report)

Retrieved 2019/04/21 12:30 UTC (0 seconds ago):

LEBL 211230Z 07021KT 9999 FEW030 19/08 Q1011 NOSIG

TAF (pilot weather forecast)

Retrieved 2019/04/21 12:27 UTC (0 seconds ago):

TAF LEBL 211100Z 2112/2212 04020KT 9999 FEW040 TX19/2112Z TN15/2206Z TEMPO 2112/2212 05025G40KT PROB30 TEMPO 2120/2210 4000 TSRA SCT025CB BKN040